Погода Рембазана 2 недели

Атырауская область, Казахстан

16 - 29 июля
  • 16июля
    Сегодня
    +21°
    +36°
    Практически безоблачно
    ВремяПогодаТемператураВлажностьДавлениеВетер, м/сВероятность осадков
    02:00Ясно и безоблачно+26°C44 %756 мм2.1 м/с2 %
    05:00Ясно и безоблачно+23°C56 %757 мм2.2 м/с2 %
    08:00Ясно и безоблачно+26°C44 %757 мм2.2 м/с2 %
    11:00Ясно и безоблачно+34°C28 %757 мм3.4 м/с2 %
    14:00Практически безоблачно+36°C22 %756 мм4.8 м/с2 %
    17:00Ясно и безоблачно+35°C19 %756 мм6.0 м/с2 %
    20:00Ясно и безоблачно+34°C19 %756 мм4.5 м/с2 %
    23:00Ясно и безоблачно+28°C28 %758 мм2.2 м/с2 %
  • 17июля
    Среда
    +21°
    +34°
    Небольшая облачность
    ВремяПогодаТемператураВлажностьДавлениеВетер, м/сВероятность осадков
    02:00Ясно и безоблачно+25°C36 %758 мм1.7 м/с3 %
    05:00Ясно и безоблачно+22°C44 %758 мм1.6 м/с2 %
    08:00Ясно и безоблачно+25°C41 %759 мм2.4 м/с2 %
    11:00Практически безоблачно+31°C31 %759 мм3.8 м/с2 %
    14:00Небольшая облачность+33°C25 %759 мм4.3 м/с4 %
    17:00Облачно с прояснениями+33°C24 %758 мм4.3 м/с3 %
    20:00Небольшая облачность+30°C35 %758 мм3.9 м/с2 %
    23:00Ясно и безоблачно+26°C50 %759 мм2.3 м/с2 %
  • 18июля
    Четверг
    +21°
    +36°
    Практически безоблачно
    ВремяПогодаТемператураВлажностьДавлениеВетер, м/сВероятность осадков
    02:00Ясно и безоблачно+24°C58 %758 мм1.5 м/с2 %
    05:00Ясно и безоблачно+22°C61 %758 мм2.0 м/с2 %
    08:00Ясно и безоблачно+24°C55 %758 мм1.2 м/с2 %
    11:00Ясно и безоблачно+33°C28 %758 мм2.1 м/с2 %
    14:00Практически безоблачно+36°C20 %757 мм4.5 м/с2 %
    17:00Ясно и безоблачно+36°C18 %756 мм4.4 м/с2 %
    20:00Ясно и безоблачно+32°C19 %756 мм3.8 м/с2 %
    23:00Ясно и безоблачно+27°C28 %756 мм1.1 м/с2 %
  • 19июля
    Пятница
    +23°
    +38°
    Ясно и безоблачно
    ВремяПогодаТемператураВлажностьДавлениеВетер, м/сВероятность осадков
    02:00Ясно и безоблачно+24°C36 %756 мм1.4 м/с2 %
    05:00Ясно и безоблачно+22°C40 %756 мм1.5 м/с2 %
    08:00Ясно и безоблачно+25°C35 %756 мм1.6 м/с2 %
    11:00Ясно и безоблачно+34°C22 %755 мм3.6 м/с2 %
    14:00Ясно и безоблачно+36°C18 %755 мм4.3 м/с2 %
    17:00Облачно с прояснениями+37°C19 %754 мм3.6 м/с3 %
    20:00Небольшая облачность+33°C31 %754 мм3.9 м/с2 %
    23:00Ясно и безоблачно+28°C46 %754 мм2.5 м/с2 %
  • 20июля
    Суббота
    +22°
    +38°
    Небольшая облачность
    ВремяПогодаТемператураВлажностьДавлениеВетер, м/сВероятность осадков
    02:00Ясно и безоблачно+25°C55 %754 мм2.0 м/с2 %
    05:00Ясно и безоблачно+23°C54 %753 мм1.7 м/с2 %
    08:00Ясно и безоблачно+26°C52 %754 мм2.5 м/с2 %
    11:00Ясно и безоблачно+34°C23 %753 мм3.0 м/с2 %
    14:00Небольшая облачность+37°C19 %753 мм4.9 м/с8 %
    17:00Небольшая облачность, возможен дождь с грозой+36°C27 %753 мм6.9 м/с28 %
    20:00Практически безоблачно+33°C33 %752 мм6.3 м/с4 %
    23:00Ясно и безоблачно+28°C45 %753 мм2.7 м/с2 %
Мы используем cookies
Соглашаюсь